createdAt,value
2022-09-11T00:02:56.118Z,15.6
2022-09-11T00:07:58.206Z,15.5
2022-09-11T00:13:00.511Z,15.4
2022-09-11T00:18:02.556Z,15.4
2022-09-11T00:23:04.650Z,15.4
2022-09-11T00:28:07.393Z,15.1
2022-09-11T00:33:09.367Z,15.1
2022-09-11T00:38:18.543Z,14.9
2022-09-11T00:43:20.721Z,15
2022-09-11T00:48:23.249Z,14.9
2022-09-11T00:53:25.305Z,14.8
2022-09-11T00:58:27.771Z,14.7
2022-09-11T01:03:29.729Z,14.7
2022-09-11T01:08:38.195Z,14.6
2022-09-11T01:13:42.051Z,14.5
2022-09-11T01:18:44.260Z,14.4
2022-09-11T01:23:46.285Z,14.4
2022-09-11T01:28:48.727Z,14.3
2022-09-11T01:33:50.863Z,14.3
2022-09-11T01:38:52.978Z,14.3
2022-09-11T01:43:55.438Z,14.4
2022-09-11T01:48:57.736Z,14.3
2022-09-11T01:53:59.712Z,14.3
2022-09-11T01:59:02.298Z,14.3
2022-09-11T02:04:04.938Z,14.1
2022-09-11T02:09:06.873Z,14.1
2022-09-11T02:14:08.949Z,14.1
2022-09-11T02:19:10.870Z,14.1
2022-09-11T02:24:12.813Z,14
2022-09-11T02:29:14.974Z,14.1
2022-09-11T02:34:17.121Z,14.1
2022-09-11T02:39:19.030Z,13.9
2022-09-11T02:44:21.005Z,13.9
2022-09-11T02:49:23.174Z,13.9
2022-09-11T02:54:25.124Z,14
2022-09-11T02:59:27.223Z,14
2022-09-11T03:04:29.165Z,14
2022-09-11T03:09:31.318Z,14
2022-09-11T03:14:33.469Z,13.9
2022-09-11T03:19:35.867Z,13.9
2022-09-11T03:24:37.853Z,13.8
2022-09-11T03:29:40.270Z,13.6
2022-09-11T03:34:42.283Z,13.6
2022-09-11T03:39:44.372Z,13.5
2022-09-11T03:44:46.859Z,13.4
2022-09-11T03:49:49.304Z,13.4
2022-09-11T03:54:51.317Z,13.4
2022-09-11T04:04:54.216Z,13.3
2022-09-11T04:09:56.439Z,13.3
2022-09-11T04:14:58.935Z,13.4
2022-09-11T04:20:03.025Z,13.5
2022-09-11T04:25:05.046Z,13.5
2022-09-11T04:30:07.565Z,13.2
2022-09-11T04:35:09.713Z,13.1
2022-09-11T04:40:12.167Z,13.4
2022-09-11T04:45:14.218Z,13.4
2022-09-11T04:50:16.318Z,13.7
2022-09-11T04:55:18.290Z,14.1
2022-09-11T05:00:20.427Z,14.4
2022-09-11T05:05:22.378Z,14.7
2022-09-11T05:10:24.309Z,14.8
2022-09-11T05:15:26.297Z,14.7
2022-09-11T05:20:28.316Z,15
2022-09-11T05:25:30.263Z,15.6
2022-09-11T05:30:32.383Z,15.3
2022-09-11T05:35:34.262Z,15.3
2022-09-11T05:40:36.136Z,15.5
2022-09-11T05:45:38.476Z,15.3
2022-09-11T05:50:40.698Z,15.8
2022-09-11T05:55:42.700Z,16.9
2022-09-11T06:00:44.717Z,18.4
2022-09-11T06:05:46.741Z,18.9
2022-09-11T06:10:48.716Z,19
2022-09-11T06:15:50.714Z,19.2
2022-09-11T06:20:52.792Z,19.1
2022-09-11T06:25:54.725Z,19.3
2022-09-11T06:30:57.352Z,19.9
2022-09-11T06:35:59.806Z,19.9
2022-09-11T06:41:01.788Z,20.6
2022-09-11T06:46:03.791Z,21.7
2022-09-11T06:51:06.191Z,22
2022-09-11T06:56:08.255Z,23.2
2022-09-11T07:01:10.696Z,24.1
2022-09-11T07:06:12.802Z,24.2
2022-09-11T07:11:15.972Z,24.5
2022-09-11T07:16:18.394Z,24.7
2022-09-11T07:21:20.474Z,24.7
2022-09-11T07:26:22.370Z,25.2
2022-09-11T07:31:24.320Z,25.8
2022-09-11T07:36:26.234Z,26.8
2022-09-11T07:41:28.349Z,27
2022-09-11T07:46:30.317Z,26.9
2022-09-11T07:51:32.966Z,27
2022-09-11T07:56:35.100Z,27
2022-09-11T08:01:37.713Z,28.1
2022-09-11T08:06:39.711Z,28
2022-09-11T08:11:41.572Z,27.1
2022-09-11T08:16:44.008Z,27.4
2022-09-11T08:21:46.451Z,27.8
2022-09-11T08:26:50.845Z,27.2
2022-09-11T08:31:52.824Z,27.2
2022-09-11T08:36:55.067Z,27.7
2022-09-11T08:41:57.006Z,27.7
2022-09-11T08:46:58.893Z,28.7
2022-09-11T08:52:01.068Z,30.4
2022-09-11T08:57:03.132Z,29.6
2022-09-11T09:02:05.923Z,31.7
2022-09-11T09:07:07.898Z,31.6
2022-09-11T09:12:10.454Z,32.8
2022-09-11T09:22:16.394Z,32.7
2022-09-11T09:27:20.919Z,32.7
2022-09-11T09:32:23.001Z,30.7
2022-09-11T09:37:26.273Z,30.3
2022-09-11T09:42:31.079Z,31.2
2022-09-11T09:47:33.626Z,35
2022-09-11T09:52:35.875Z,34.9
2022-09-11T09:57:37.877Z,36.1
2022-09-11T10:02:39.970Z,36
2022-09-11T10:07:42.232Z,35.8
2022-09-11T10:12:44.307Z,36.3
2022-09-11T10:17:46.230Z,36.6
2022-09-11T10:22:48.274Z,33.5
2022-09-11T10:27:50.359Z,31.5
2022-09-11T10:32:52.459Z,30.6
2022-09-11T10:37:54.500Z,33.5
2022-09-11T10:42:56.480Z,31.1
2022-09-11T10:47:58.603Z,31.6
2022-09-11T10:53:00.726Z,33.1
2022-09-11T11:03:02.948Z,29.2
2022-09-11T11:08:06.306Z,27
2022-09-11T11:13:08.279Z,26.8
2022-09-11T11:28:18.161Z,25.1
2022-09-11T11:33:20.559Z,27.9
2022-09-11T11:38:25.636Z,29.7
2022-09-11T11:43:27.868Z,29.6
2022-09-11T11:48:30.555Z,28.2
2022-09-11T11:53:33.056Z,28.1
2022-09-11T11:58:35.593Z,29.7
2022-09-11T12:03:38.669Z,31.6
2022-09-11T12:08:41.255Z,29.2
2022-09-11T12:13:43.443Z,29.1
2022-09-11T12:18:45.975Z,25.2
2022-09-11T12:23:47.961Z,25.1
2022-09-11T12:28:49.975Z,24.7
2022-09-11T12:33:52.047Z,24.5
2022-09-11T12:38:54.069Z,24.9
2022-09-11T12:43:56.130Z,25.1
2022-09-11T12:49:24.256Z,25
2022-09-11T12:54:06.621Z,25
2022-09-11T12:59:08.628Z,24.7
2022-09-11T13:04:10.654Z,24.9
2022-09-11T13:09:15.222Z,25
2022-09-11T13:14:17.304Z,24.9
2022-09-11T13:19:19.532Z,24.6
2022-09-11T13:24:21.625Z,24.3
2022-09-11T13:29:23.563Z,24
2022-09-11T13:34:26.094Z,23.6
2022-09-11T13:39:28.202Z,23.6
2022-09-11T13:44:30.324Z,23.3
2022-09-11T13:49:32.369Z,22.9
2022-09-11T13:54:34.416Z,23
2022-09-11T13:59:36.638Z,22.9
2022-09-11T14:04:38.994Z,22.5
2022-09-11T14:09:42.079Z,22.4
2022-09-11T14:14:44.278Z,22.3
2022-09-11T14:19:46.337Z,22.3
2022-09-11T14:24:48.813Z,22.4
2022-09-11T14:29:54.791Z,22.4
2022-09-11T14:34:56.982Z,22.7
2022-09-11T14:39:59.229Z,22.5
2022-09-11T14:45:07.694Z,22.4
2022-09-11T14:50:09.976Z,22.4
2022-09-11T14:55:12.158Z,22.8
2022-09-11T15:00:14.124Z,23.2
2022-09-11T15:05:16.277Z,23.2
2022-09-11T15:10:18.232Z,23.2
2022-09-11T15:15:20.307Z,23
2022-09-11T15:20:22.254Z,22.5
2022-09-11T15:25:24.820Z,22.3
2022-09-11T15:30:27.036Z,22.2
2022-09-11T15:35:34.728Z,21.8
2022-09-11T15:40:36.786Z,21.8
2022-09-11T15:45:39.035Z,21.8
2022-09-11T15:50:41.049Z,21.9
2022-09-11T15:55:43.176Z,22.1
2022-09-11T16:00:45.435Z,22.1
2022-09-11T16:05:48.187Z,21.6
2022-09-11T16:10:51.305Z,21.5
2022-09-11T16:15:53.975Z,21.4
2022-09-11T16:20:56.594Z,21.2
2022-09-11T16:25:58.682Z,21.1
2022-09-11T16:31:00.731Z,21
2022-09-11T16:36:05.748Z,20.7
2022-09-11T16:41:07.781Z,20.6
2022-09-11T16:46:09.967Z,20.5
2022-09-11T16:51:12.402Z,20.3
2022-09-11T16:56:14.593Z,20.1
2022-09-11T17:01:17.156Z,19.8
2022-09-11T17:06:19.229Z,19.8
2022-09-11T17:11:21.282Z,19.6
2022-09-11T17:16:23.356Z,19.5
2022-09-11T17:21:25.827Z,19.4
2022-09-11T17:26:27.871Z,19.2
2022-09-11T17:31:30.033Z,19.2
2022-09-11T17:36:32.145Z,19
2022-09-11T17:41:34.138Z,18.9
2022-09-11T17:46:36.289Z,18.8
2022-09-11T17:51:38.434Z,18.9
2022-09-11T17:56:40.553Z,18.8
2022-09-11T18:01:45.300Z,18.7
2022-09-11T18:06:47.332Z,18.7
2022-09-11T18:11:49.423Z,18.8
2022-09-11T18:16:51.597Z,18.7
2022-09-11T18:21:53.608Z,18.7
2022-09-11T18:27:02.298Z,18.3
2022-09-11T18:32:04.746Z,18.1
2022-09-11T18:37:06.936Z,18
2022-09-11T18:42:09.392Z,17.8
2022-09-11T18:47:11.520Z,17.8
2022-09-11T18:52:13.616Z,17.7
2022-09-11T18:57:16.369Z,17.6
2022-09-11T19:02:18.508Z,17.5
2022-09-11T19:07:20.895Z,17.4
2022-09-11T19:12:23.206Z,17.4
2022-09-11T19:17:25.276Z,17.4
2022-09-11T19:22:27.239Z,17.4
2022-09-11T19:27:29.391Z,17.3
2022-09-11T19:32:31.353Z,17.3
2022-09-11T19:37:33.336Z,17.3
2022-09-11T19:42:35.929Z,17.2
2022-09-11T19:47:37.929Z,17.2
2022-09-11T19:52:39.990Z,17.3
2022-09-11T20:02:42.664Z,17
2022-09-11T20:07:44.694Z,16.9
2022-09-11T20:12:46.627Z,16.8
2022-09-11T20:17:48.544Z,16.7
2022-09-11T20:22:50.434Z,16.6
2022-09-11T20:27:53.688Z,16.4
2022-09-11T20:32:55.655Z,16.4
2022-09-11T20:37:58.129Z,16.3
2022-09-11T20:43:02.425Z,16.3
2022-09-11T20:53:04.789Z,16.1
2022-09-11T20:58:09.494Z,16
2022-09-11T21:03:11.401Z,15.9
2022-09-11T21:08:13.322Z,15.8
2022-09-11T21:13:15.482Z,15.6
2022-09-11T21:18:17.707Z,15.5
2022-09-11T21:23:19.761Z,15.5
2022-09-11T21:28:21.810Z,15.6
2022-09-11T21:33:24.081Z,15.6
2022-09-11T21:38:26.077Z,15.6
2022-09-11T21:43:28.015Z,15.6
2022-09-11T21:48:36.994Z,15.5
2022-09-11T21:53:39.136Z,15.4
2022-09-11T21:58:41.375Z,15.5
2022-09-11T22:03:43.424Z,15.4
2022-09-11T22:08:45.693Z,15.4
2022-09-11T22:13:48.193Z,15.3
2022-09-11T22:18:50.335Z,15.3
2022-09-11T22:23:52.469Z,15.3
2022-09-11T22:28:54.493Z,15.2
2022-09-11T22:33:56.684Z,15.1
2022-09-11T22:38:58.713Z,15.1
2022-09-11T22:44:00.678Z,15.1
2022-09-11T22:49:03.656Z,15
2022-09-11T22:54:06.127Z,14.9
2022-09-11T22:59:08.368Z,14.9
2022-09-11T23:04:10.789Z,14.9
2022-09-11T23:09:12.808Z,14.9
2022-09-11T23:14:16.721Z,14.9
2022-09-11T23:19:18.804Z,14.8
2022-09-11T23:24:20.787Z,14.9
2022-09-11T23:29:22.972Z,14.8
2022-09-11T23:34:24.948Z,14.8
2022-09-11T23:39:27.747Z,14.7
2022-09-11T23:44:29.755Z,14.7
2022-09-11T23:49:37.727Z,14.7
2022-09-11T23:54:39.677Z,14.7
2022-09-11T23:59:41.880Z,14.7
